Latest Weather Observations for Busselton Jetty

IDW60801

Issued at 6:13 am WST Wednesday 8 December 2021 (issued every 10 minutes, with the page automatically refreshed every 10 minutes)

About weather observations | Map of weather stations | Latest weather observations for WA | Other Formats
Station Details ID: 009937 Name: BUSSELTON JETTY Lat: -33.63 Lon: 115.34 Height: 3.0 m
Data from the previous 72 hours. | See also: Recent months at Busselton Jetty
Date/Time
WST
Temp
°C
App
Temp
°C
Dew
Point
°C
Rel
Hum
%
Delta-T
°C
Wind Press
QNH
hPa
Press
MSL
hPa
Rain since
9am
mm
Dir  Spd
km/h
Gust
km/h
Spd
kts
Gust
kts
08/06:00am - - - - - E 32 37 17 20 - - -
08/05:30am - - - - - E 33 39 18 21 - - -
08/05:00am - - - - - E 33 39 18 21 - - -
08/04:30am - - - - - E 33 39 18 21 - - -
08/04:00am - - - - - E 33 39 18 21 - - -
08/03:30am - - - - - E 33 39 18 21 - - -
08/03:00am - - - - - E 35 41 19 22 - - -
08/02:30am - - - - - E 30 37 16 20 - - -
08/02:00am - - - - - ESE 32 39 17 21 - - -
08/01:30am - - - - - ESE 33 39 18 21 - - -
08/01:00am - - - - - ESE 33 41 18 22 - - -
08/12:30am - - - - - ESE 32 39 17 21 - - -
08/12:00am - - - - - E 35 48 19 26 - - -
 
Date/Time
WST
Temp
°C
App
Temp
°C
Dew
Point
°C
Rel
Hum
%
Delta-T
°C
Wind Press
QNH
hPa
Press
MSL
hPa
Rain since
9am
mm
Dir  Spd
km/h
Gust
km/h
Spd
kts
Gust
kts
07/11:30pm - - - - - ESE 37 44 20 24 - - -
07/11:00pm - - - - - ESE 33 46 18 25 - - -
07/10:30pm - - - - - ESE 35 46 19 25 - - -
07/10:12pm - - - - - ESE 35 54 19 29 - - -
07/10:00pm - - - - - ESE 35 48 19 26 - - -
07/09:30pm - - - - - ESE 33 43 18 23 - - -
07/09:00pm - - - - - ESE 32 41 17 22 - - -
07/08:30pm - - - - - ESE 33 37 18 20 - - -
07/08:00pm - - - - - SE 22 30 12 16 - - -
07/07:30pm - - - - - ESE 20 22 11 12 - - -
07/07:00pm - - - - - E 22 26 12 14 - - -
07/06:30pm - - - - - E 28 35 15 19 - - -
07/06:00pm - - - - - E 33 39 18 21 - - -
07/05:30pm - - - - - E 26 33 14 18 - - -
07/05:00pm - - - - - E 30 37 16 20 - - -
07/04:30pm - - - - - E 33 39 18 21 - - -
07/04:00pm - - - - - E 32 39 17 21 - - -
07/03:30pm - - - - - E 32 37 17 20 - - -
07/03:00pm - - - - - E 26 35 14 19 - - -
07/02:30pm - - - - - E 24 35 13 19 - - -
07/02:00pm - - - - - E 28 35 15 19 - - -
07/01:30pm - - - - - E 30 35 16 19 - - -
07/01:00pm - - - - - E 32 39 17 21 - - -
07/12:30pm - - - - - E 32 43 17 23 - - -
07/12:00pm - - - - - E 33 39 18 21 - - -
07/11:30am - - - - - E 30 35 16 19 - - -
07/11:00am - - - - - E 33 41 18 22 - - -
07/10:30am - - - - - E 35 44 19 24 - - -
07/10:00am - - - - - ESE 33 41 18 22 - - -
07/09:30am - - - - - ESE 35 44 19 24 - - -
07/09:00am - - - - - E 35 44 19 24 - - -
07/08:30am - - - - - ESE 35 43 19 23 - - -
07/08:00am - - - - - ESE 35 43 19 23 - - -
07/07:30am - - - - - E 35 44 19 24 - - -
07/07:00am - - - - - ESE 35 44 19 24 - - -
07/06:30am - - - - - ESE 33 43 18 23 - - -
07/06:00am - - - - - ESE 30 35 16 19 - - -
07/05:30am - - - - - ESE 30 35 16 19 - - -
07/05:00am - - - - - ESE 33 41 18 22 - - -
07/04:30am - - - - - E 35 39 19 21 - - -
07/04:00am - - - - - ESE 35 44 19 24 - - -
07/03:30am - - - - - ESE 32 39 17 21 - - -
07/03:00am - - - - - ESE 32 37 17 20 - - -
07/02:30am - - - - - ESE 32 37 17 20 - - -
07/02:00am - - - - - ESE 32 39 17 21 - - -
07/01:30am - - - - - ESE 32 39 17 21 - - -
07/01:00am - - - - - ESE 39 48 21 26 - - -
07/12:30am - - - - - ESE 37 48 20 26 - - -
07/12:00am - - - - - ESE 33 41 18 22 - - -
 
Date/Time
WST
Temp
°C
App
Temp
°C
Dew
Point
°C
Rel
Hum
%
Delta-T
°C
Wind Press
QNH
hPa
Press
MSL
hPa
Rain since
9am
mm
Dir  Spd
km/h
Gust
km/h
Spd
kts
Gust
kts
06/11:30pm - - - - - ESE 35 46 19 25 - - -
06/11:00pm - - - - - ESE 33 44 18 24 - - -
06/10:30pm - - - - - ESE 33 44 18 24 - - -
06/10:00pm - - - - - ESE 37 48 20 26 - - -
06/09:30pm - - - - - SE 35 44 19 24 - - -
06/09:00pm - - - - - SE 35 44 19 24 - - -
06/08:30pm - - - - - SE 35 41 19 22 - - -
06/08:00pm - - - - - SE 33 41 18 22 - - -
06/07:30pm - - - - - SE 30 33 16 18 - - -
06/07:00pm - - - - - SE 30 39 16 21 - - -
06/06:30pm - - - - - SE 35 43 19 23 - - -
06/06:00pm - - - - - SE 35 41 19 22 - - -
06/05:30pm - - - - - SE 37 46 20 25 - - -
06/05:00pm - - - - - SE 37 48 20 26 - - -
06/04:30pm - - - - - SE 33 43 18 23 - - -
06/04:00pm - - - - - ESE 32 37 17 20 - - -
06/03:30pm - - - - - SE 32 41 17 22 - - -
06/03:00pm - - - - - SE 32 44 17 24 - - -
06/02:30pm - - - - - SE 33 43 18 23 - - -
06/02:00pm - - - - - SE 26 37 14 20 - - -
06/01:30pm - - - - - SE 30 41 16 22 - - -
06/01:00pm - - - - - SE 33 46 18 25 - - -
06/12:30pm - - - - - SE 35 43 19 23 - - -
06/12:00pm - - - - - ESE 33 43 18 23 - - -
06/11:30am - - - - - SE 32 41 17 22 - - -
06/11:00am - - - - - SE 32 39 17 21 - - -
06/10:30am - - - - - SE 33 41 18 22 - - -
06/10:00am - - - - - SE 30 37 16 20 - - -
06/09:30am - - - - - SSE 28 33 15 18 - - -
06/09:00am - - - - - SE 32 43 17 23 - - -
06/08:30am - - - - - SE 35 44 19 24 - - -
06/08:00am - - - - - SE 33 41 18 22 - - -
06/07:30am - - - - - SE 32 37 17 20 - - -
06/07:00am - - - - - SE 32 39 17 21 - - -
06/06:30am - - - - - SE 32 37 17 20 - - -
06/06:00am - - - - - SE 30 39 16 21 - - -
06/05:30am - - - - - SE 30 37 16 20 - - -
06/05:00am - - - - - SSE 28 35 15 19 - - -
06/04:30am - - - - - SSE 26 35 14 19 - - -
06/04:00am - - - - - SSE 26 32 14 17 - - -
06/03:30am - - - - - SSE 26 30 14 16 - - -
06/03:00am - - - - - SSE 24 30 13 16 - - -
06/02:30am - - - - - SE 24 33 13 18 - - -
06/02:00am - - - - - SE 26 33 14 18 - - -
06/01:30am - - - - - SSE 28 35 15 19 - - -
06/01:00am - - - - - SE 28 33 15 18 - - -
06/12:30am - - - - - SE 26 32 14 17 - - -
06/12:00am - - - - - SE 28 35 15 19 - - -
 
Date/Time
WST
Temp
°C
App
Temp
°C
Dew
Point
°C
Rel
Hum
%
Delta-T
°C
Wind Press
QNH
hPa
Press
MSL
hPa
Rain since
9am
mm
Dir  Spd
km/h
Gust
km/h
Spd
kts
Gust
kts
05/11:30pm - - - - - SE 26 30 14 16 - - -
05/11:00pm - - - - - SE 32 39 17 21 - - -
05/10:30pm - - - - - SSE 32 41 17 22 - - -
05/10:00pm - - - - - SSE 33 48 18 26 - - -
05/09:30pm - - - - - SSE 30 37 16 20 - - -
05/09:00pm - - - - - SSE 33 41 18 22 - - -
05/08:30pm - - - - - S 33 41 18 22 - - -
05/08:00pm - - - - - S 35 44 19 24 - - -
05/07:30pm - - - - - S 37 46 20 25 - - -
05/07:00pm - - - - - S 35 50 19 27 - - -
05/06:30pm - - - - - S 41 50 22 27 - - -
05/06:00pm - - - - - S 37 46 20 25 - - -
05/05:30pm - - - - - S 39 50 21 27 - - -
05/05:00pm - - - - - S 43 54 23 29 - - -
05/04:30pm - - - - - S 41 52 22 28 - - -
05/04:00pm - - - - - S 41 52 22 28 - - -
05/03:30pm - - - - - S 39 52 21 28 - - -
05/03:00pm - - - - - S 37 50 20 27 - - -
05/02:30pm - - - - - S 35 48 19 26 - - -
05/02:00pm - - - - - S 32 41 17 22 - - -
05/01:30pm - - - - - S 26 33 14 18 - - -
05/01:00pm - - - - - S 32 39 17 21 - - -
05/12:30pm - - - - - S 28 39 15 21 - - -
05/12:00pm - - - - - S 20 30 11 16 - - -
05/11:30am - - - - - SSE 17 24 9 13 - - -
05/11:00am - - - - - S 20 28 11 15 - - -
05/10:30am - - - - - SSW 26 33 14 18 - - -
05/10:00am - - - - - SSW 26 33 14 18 - - -
05/09:30am - - - - - S 20 26 11 14 - - -
05/09:00am - - - - - S 19 26 10 14 - - -
05/08:30am - - - - - S 19 26 10 14 - - -
05/08:00am - - - - - S 19 24 10 13 - - -
05/07:30am - - - - - SE 17 20 9 11 - - -
05/07:00am - - - - - S 20 26 11 14 - - -
05/06:30am - - - - - S 22 28 12 15 - - -

Other formats

Comma delimited format used in spreadsheet applications
http://www.bom.gov.au/fwo/IDW60801/IDW60801.95602.axf

JavaScript Object Notation format (JSON) in row-major order
http://www.bom.gov.au/fwo/IDW60801/IDW60801.95602.json

Data quality

Most of these data are generated automatically and are frequently updated. Quality checks on data are not normally performed. It is possible for incorrect values to appear. Refer to information at About Latest Weather Observations and please check the disclaimer before using these data.